createdAt,value
2023-05-05T00:00:16.760Z,101877.63
2023-05-05T00:02:43.632Z,101866.28
2023-05-05T00:05:14.656Z,101866.41
2023-05-05T00:07:41.059Z,101870.97
2023-05-05T00:10:07.923Z,101874.59
2023-05-05T00:12:34.428Z,101871.28
2023-05-05T00:15:01.714Z,101867.75
2023-05-05T00:17:28.047Z,101867.09
2023-05-05T00:19:54.445Z,101862.81
2023-05-05T00:22:25.599Z,101865.59
2023-05-05T00:24:51.973Z,101858.63
2023-05-05T00:27:18.347Z,101854.25
2023-05-05T00:29:44.746Z,101859.50
2023-05-05T00:32:11.119Z,101856.84
2023-05-05T00:34:37.480Z,101860.38
2023-05-05T00:37:03.935Z,101856.72
2023-05-05T00:39:30.363Z,101852.25
2023-05-05T00:41:56.726Z,101842.50
2023-05-05T00:44:41.979Z,101841.66
2023-05-05T00:47:09.456Z,101843.47
2023-05-05T00:49:36.816Z,101838.75
2023-05-05T00:52:07.198Z,101844.09
2023-05-05T00:54:34.594Z,101841.53
2023-05-05T00:57:02.170Z,101843.47
2023-05-05T00:59:30.317Z,101849.75
2023-05-05T01:01:57.025Z,101837.69
2023-05-05T01:04:25.487Z,101832.44
2023-05-05T01:07:10.616Z,101833.47
2023-05-05T01:09:42.075Z,101831.78
2023-05-05T01:12:33.103Z,101830.06
2023-05-05T01:15:27.031Z,101833.69
2023-05-05T01:18:00.482Z,101840.66
2023-05-05T01:20:39.110Z,101833.59
2023-05-05T01:27:11.284Z,101813.81
2023-05-05T01:29:46.955Z,101816.50
2023-05-05T01:32:15.833Z,101825.28
2023-05-05T01:34:50.549Z,101822.59
2023-05-05T01:37:27.049Z,101823.34
2023-05-05T01:39:58.998Z,101821.53
2023-05-05T01:42:27.015Z,101827.00
2023-05-05T01:44:54.492Z,101829.00
2023-05-05T01:47:23.298Z,101828.91
2023-05-05T01:49:51.208Z,101829.84
2023-05-05T01:52:18.206Z,101822.91
2023-05-05T01:54:45.602Z,101823.00
2023-05-05T01:57:13.413Z,101813.41
2023-05-05T01:59:40.041Z,101811.72
2023-05-05T02:02:10.078Z,101817.19
2023-05-05T02:04:41.182Z,101812.81
2023-05-05T02:07:08.716Z,101809.16
2023-05-05T02:09:36.969Z,101800.13
2023-05-05T02:12:05.066Z,101800.03
2023-05-05T02:14:32.713Z,101800.78
2023-05-05T02:16:59.534Z,101808.81
2023-05-05T02:19:34.389Z,101803.56
2023-05-05T02:22:00.865Z,101799.06
2023-05-05T02:24:27.316Z,101795.44
2023-05-05T02:26:55.961Z,101783.91
2023-05-05T02:29:31.202Z,101788.28
2023-05-05T02:32:03.551Z,101782.19
2023-05-05T02:34:36.583Z,101784.94
2023-05-05T02:37:09.661Z,101784.00
2023-05-05T02:39:45.343Z,101779.59
2023-05-05T02:42:19.893Z,101785.13
2023-05-05T02:44:50.430Z,101771.03
2023-05-05T02:47:16.941Z,101772.94
2023-05-05T02:49:43.460Z,101777.50
2023-05-05T02:52:10.056Z,101768.66
2023-05-05T02:54:38.158Z,101772.16
2023-05-05T02:57:18.444Z,101764.38
2023-05-05T03:00:18.123Z,101769.50
2023-05-05T03:03:04.012Z,101759.59
2023-05-05T03:05:41.329Z,101754.25
2023-05-05T03:08:18.305Z,101763.13
2023-05-05T03:10:58.785Z,101767.59
2023-05-05T03:13:28.128Z,101760.44
2023-05-05T03:15:56.060Z,101763.97
2023-05-05T03:18:26.312Z,101766.66
2023-05-05T03:21:08.416Z,101752.31
2023-05-05T03:23:37.000Z,101757.66
2023-05-05T03:26:07.291Z,101761.19
2023-05-05T03:28:38.211Z,101756.69
2023-05-05T03:31:13.321Z,101752.09
2023-05-05T03:33:40.603Z,101750.41
2023-05-05T03:36:07.917Z,101748.69
2023-05-05T03:38:34.634Z,101741.63
2023-05-05T03:41:05.397Z,101737.16
2023-05-05T03:43:33.002Z,101738.00
2023-05-05T03:45:59.402Z,101736.28
2023-05-05T03:48:26.595Z,101734.59
2023-05-05T03:50:53.985Z,101727.53
2023-05-05T03:53:22.579Z,101727.53
2023-05-05T03:55:49.120Z,101732.97
2023-05-05T03:58:16.316Z,101738.41
2023-05-05T04:00:42.948Z,101745.47
2023-05-05T04:03:11.018Z,101742.03
2023-05-05T04:05:38.029Z,101742.03
2023-05-05T04:08:05.146Z,101748.34
2023-05-05T04:10:32.062Z,101751.03
2023-05-05T04:12:58.494Z,101758.28
2023-05-05T04:15:24.938Z,101753.91
2023-05-05T04:17:51.638Z,101751.97
2023-05-05T04:20:18.746Z,101736.91
2023-05-05T04:22:45.934Z,101739.59
2023-05-05T04:25:12.531Z,101738.63
2023-05-05T04:27:38.987Z,101748.56
2023-05-05T04:30:08.064Z,101745.97
2023-05-05T04:32:36.975Z,101743.31
2023-05-05T04:35:04.374Z,101737.97
2023-05-05T04:37:30.884Z,101744.16
2023-05-05T04:39:58.369Z,101747.72
2023-05-05T04:42:24.837Z,101753.91
2023-05-05T04:44:51.304Z,101748.56
2023-05-05T04:47:17.709Z,101748.56
2023-05-05T04:49:45.055Z,101751.25
2023-05-05T04:52:14.363Z,101745.03
2023-05-05T04:54:40.910Z,101743.31
2023-05-05T04:57:07.437Z,101750.47
2023-05-05T04:59:34.807Z,101754.75
2023-05-05T05:02:01.249Z,101759.31
2023-05-05T05:04:27.680Z,101759.25
2023-05-05T05:06:55.728Z,101751.25
2023-05-05T05:09:23.314Z,101766.31
2023-05-05T05:11:49.706Z,101766.50
2023-05-05T05:14:16.138Z,101759.31
2023-05-05T05:16:42.907Z,101752.16
2023-05-05T05:19:09.380Z,101739.59
2023-05-05T05:21:36.148Z,101746.75
2023-05-05T05:24:03.143Z,101749.59
2023-05-05T05:26:29.740Z,101752.78
2023-05-05T05:28:56.159Z,101738.84
2023-05-05T05:31:23.416Z,101739.84
2023-05-05T05:33:50.951Z,101734.38
2023-05-05T05:36:18.116Z,101741.03
2023-05-05T05:38:44.490Z,101735.16
2023-05-05T05:41:11.413Z,101734.69
2023-05-05T05:43:38.899Z,101740.94
2023-05-05T05:46:08.237Z,101746.47
2023-05-05T05:48:35.866Z,101747.78
2023-05-05T05:51:03.071Z,101757.09
2023-05-05T05:53:29.589Z,101752.03
2023-05-05T05:55:56.093Z,101757.91
2023-05-05T05:58:22.507Z,101761.13
2023-05-05T06:00:49.233Z,101761.88
2023-05-05T06:03:16.195Z,101773.13
2023-05-05T06:05:42.792Z,101777.09
2023-05-05T06:08:09.818Z,101759.66
2023-05-05T06:10:42.006Z,101751.13
2023-05-05T06:13:13.104Z,101752.38
2023-05-05T06:15:43.438Z,101754.50
2023-05-05T06:18:12.162Z,101746.38
2023-05-05T06:20:38.634Z,101753.47
2023-05-05T06:23:05.270Z,101749.94
2023-05-05T06:25:34.042Z,101746.19
2023-05-05T06:28:01.835Z,101739.66
2023-05-05T06:30:28.314Z,101739.47
2023-05-05T06:32:54.781Z,101733.28
2023-05-05T06:35:22.132Z,101735.81
2023-05-05T06:37:48.515Z,101742.75
2023-05-05T06:40:14.954Z,101741.59
2023-05-05T06:42:41.570Z,101732.50
2023-05-05T06:45:10.893Z,101744.69
2023-05-05T06:47:37.354Z,101749.72
2023-05-05T06:50:03.964Z,101750.34
2023-05-05T06:52:30.356Z,101734.97
2023-05-05T06:54:56.741Z,101734.84
2023-05-05T06:57:23.300Z,101730.47
2023-05-05T06:59:49.743Z,101732.19
2023-05-05T07:02:16.171Z,101741.91
2023-05-05T07:04:44.159Z,101746.19
2023-05-05T07:07:10.657Z,101743.94
2023-05-05T07:09:37.032Z,101746.09
2023-05-05T07:12:03.624Z,101731.00
2023-05-05T07:14:36.262Z,101729.94
2023-05-05T07:17:02.764Z,101730.69
2023-05-05T07:19:29.110Z,101733.03
2023-05-05T07:21:55.509Z,101747.13
2023-05-05T07:24:23.246Z,101763.97
2023-05-05T07:26:49.830Z,101763.00
2023-05-05T07:29:16.214Z,101752.06
2023-05-05T07:31:42.617Z,101758.25
2023-05-05T07:34:08.986Z,101748.41
2023-05-05T07:36:35.536Z,101752.72
2023-05-05T07:39:01.910Z,101754.31
2023-05-05T07:41:30.932Z,101764.88
2023-05-05T07:43:57.513Z,101778.28
2023-05-05T07:46:23.950Z,101778.94
2023-05-05T07:48:50.332Z,101785.00
2023-05-05T07:51:16.748Z,101790.38
2023-05-05T07:53:43.270Z,101786.50
2023-05-05T07:56:09.703Z,101790.88
2023-05-05T07:58:36.182Z,101794.19
2023-05-05T08:01:02.726Z,101791.28
2023-05-05T08:03:29.242Z,101796.88
2023-05-05T08:05:56.435Z,101803.41
2023-05-05T08:08:24.831Z,101802.34
2023-05-05T08:10:52.850Z,101800.41
2023-05-05T08:13:19.448Z,101801.25
2023-05-05T08:15:45.913Z,101797.63
2023-05-05T08:18:12.508Z,101790.22
2023-05-05T08:20:39.185Z,101785.75
2023-05-05T08:23:06.142Z,101793.22
2023-05-05T08:25:32.487Z,101798.81
2023-05-05T08:27:58.840Z,101800.00
2023-05-05T08:30:25.191Z,101805.34
2023-05-05T08:32:51.626Z,101804.59
2023-05-05T08:35:18.127Z,101801.06
2023-05-05T08:37:44.937Z,101798.28
2023-05-05T08:40:14.085Z,101789.47
2023-05-05T08:42:41.944Z,101787.44
2023-05-05T08:45:09.873Z,101774.06
2023-05-05T08:47:38.222Z,101774.78
2023-05-05T08:50:05.909Z,101763.22
2023-05-05T08:52:40.207Z,101760.69
2023-05-05T08:55:14.488Z,101766.03
2023-05-05T08:57:56.546Z,101743.13
2023-05-05T09:00:23.588Z,101746.53
2023-05-05T09:02:50.659Z,101741.16
2023-05-05T09:05:17.671Z,101730.59
2023-05-05T09:07:44.295Z,101735.09
2023-05-05T09:10:12.017Z,101737.66
2023-05-05T09:12:42.629Z,101744.94
2023-05-05T09:15:11.587Z,101740.69
2023-05-05T09:17:38.845Z,101738.00
2023-05-05T09:20:09.572Z,101745.19
2023-05-05T09:22:38.438Z,101746.16
2023-05-05T09:25:06.881Z,101735.44
2023-05-05T09:27:38.464Z,101728.38
2023-05-05T09:30:05.991Z,101738.13
2023-05-05T09:32:55.397Z,101742.63
2023-05-05T09:35:23.156Z,101737.25
2023-05-05T09:37:49.626Z,101723.03
2023-05-05T09:40:18.490Z,101727.41
2023-05-05T09:42:45.112Z,101728.88
2023-05-05T09:45:18.094Z,101719.03
2023-05-05T09:47:46.261Z,101717.19
2023-05-05T09:50:18.641Z,101714.53
2023-05-05T09:53:00.188Z,101730.25
2023-05-05T09:55:26.698Z,101727.72
2023-05-05T09:57:53.184Z,101728.31
2023-05-05T10:00:20.281Z,101718.34
2023-05-05T10:02:47.012Z,101719.13
2023-05-05T10:05:16.023Z,101703.13
2023-05-05T10:07:44.640Z,101696.94
2023-05-05T10:10:16.809Z,101692.34
2023-05-05T10:12:45.800Z,101708.63
2023-05-05T10:15:15.021Z,101690.00
2023-05-05T10:20:19.125Z,101691.25
2023-05-05T10:22:54.393Z,101690.16
2023-05-05T10:25:34.980Z,101691.38
2023-05-05T10:28:06.378Z,101687.06
2023-05-05T10:30:41.850Z,101681.63
2023-05-05T10:33:30.411Z,101696.06
2023-05-05T10:36:02.232Z,101686.00
2023-05-05T10:38:32.702Z,101689.66
2023-05-05T10:41:02.571Z,101694.91
2023-05-05T10:43:33.595Z,101699.50
2023-05-05T10:46:00.483Z,101689.75
2023-05-05T10:48:38.145Z,101693.19
2023-05-05T10:51:40.560Z,101706.47
2023-05-05T10:54:19.831Z,101696.38
2023-05-05T10:56:47.219Z,101711.88
2023-05-05T10:59:43.536Z,101710.81
2023-05-05T11:02:28.104Z,101716.81
2023-05-05T11:05:22.774Z,101708.66
2023-05-05T11:07:51.385Z,101710.88
2023-05-05T11:10:20.539Z,101700.66
2023-05-05T11:13:10.254Z,101694.22
2023-05-05T11:15:37.961Z,101687.66
2023-05-05T11:18:08.004Z,101684.00
2023-05-05T11:20:39.319Z,101673.69
2023-05-05T11:23:05.633Z,101678.19
2023-05-05T11:25:35.026Z,101664.47
2023-05-05T11:28:09.230Z,101662.16
2023-05-05T11:30:56.895Z,101655.38
2023-05-05T11:33:38.501Z,101658.63
2023-05-05T11:36:09.272Z,101662.66
2023-05-05T11:39:06.516Z,101651.22
2023-05-05T11:41:32.860Z,101652.31
2023-05-05T11:44:16.641Z,101639.88
2023-05-05T11:46:52.067Z,101627.59
2023-05-05T11:49:35.866Z,101641.97
2023-05-05T11:52:03.384Z,101645.63
2023-05-05T11:54:30.336Z,101651.06
2023-05-05T11:57:04.860Z,101662.03
2023-05-05T11:59:32.628Z,101661.19
2023-05-05T12:01:59.581Z,101653.03
2023-05-05T12:04:26.491Z,101660.94
2023-05-05T12:06:55.222Z,101646.94
2023-05-05T12:09:22.774Z,101650.22
2023-05-05T12:11:53.243Z,101632.94
2023-05-05T12:14:20.047Z,101637.84
2023-05-05T12:17:03.373Z,101633.47
2023-05-05T12:19:33.121Z,101632.03
2023-05-05T12:22:03.966Z,101632.34
2023-05-05T12:24:30.881Z,101626.78
2023-05-05T12:27:13.147Z,101628.34
2023-05-05T12:29:39.618Z,101618.34
2023-05-05T12:32:06.277Z,101624.56
2023-05-05T12:34:32.878Z,101621.78
2023-05-05T12:37:01.048Z,101613.72
2023-05-05T12:39:36.996Z,101621.03
2023-05-05T12:42:04.579Z,101621.03
2023-05-05T12:44:38.315Z,101616.53
2023-05-05T12:47:05.470Z,101622.97
2023-05-05T12:49:34.055Z,101622.63
2023-05-05T12:52:00.705Z,101624.47
2023-05-05T12:54:30.551Z,101628.00
2023-05-05T12:56:57.226Z,101626.25
2023-05-05T12:59:23.967Z,101624.69
2023-05-05T13:01:52.565Z,101617.03
2023-05-05T13:04:20.875Z,101618.94
2023-05-05T13:06:49.230Z,101627.25
2023-05-05T13:09:36.013Z,101622.16
2023-05-05T13:12:03.834Z,101625.06
2023-05-05T13:14:31.826Z,101619.81
2023-05-05T13:16:58.320Z,101617.25
2023-05-05T13:19:31.645Z,101607.66
2023-05-05T13:22:01.713Z,101609.69
2023-05-05T13:24:42.323Z,101599.22
2023-05-05T13:27:16.404Z,101606.44
2023-05-05T13:29:43.617Z,101607.28
2023-05-05T13:32:10.021Z,101602.75
2023-05-05T13:34:40.082Z,101603.63
2023-05-05T13:37:06.560Z,101607.28
2023-05-05T13:39:33.153Z,101596.56
2023-05-05T13:42:00.381Z,101597.53
2023-05-05T13:44:26.811Z,101601.06
2023-05-05T13:46:53.211Z,101596.69
2023-05-05T13:49:20.104Z,101597.63
2023-05-05T13:51:47.038Z,101588.84
2023-05-05T13:54:13.636Z,101590.78
2023-05-05T13:56:40.027Z,101594.31
2023-05-05T13:59:06.419Z,101583.72
2023-05-05T14:01:32.945Z,101584.44
2023-05-05T14:03:59.387Z,101575.56
2023-05-05T14:06:26.350Z,101564.97
2023-05-05T14:08:52.818Z,101563.13
2023-05-05T14:11:20.662Z,101566.66
2023-05-05T14:13:47.409Z,101558.63
2023-05-05T14:16:14.146Z,101555.94
2023-05-05T14:18:40.729Z,101551.69
2023-05-05T14:21:07.305Z,101557.91
2023-05-05T14:23:33.817Z,101545.47
2023-05-05T14:26:00.623Z,101553.63
2023-05-05T14:28:27.707Z,101567.16
2023-05-05T14:30:54.181Z,101567.16
2023-05-05T14:33:20.569Z,101560.22
2023-05-05T14:35:47.132Z,101557.78
2023-05-05T14:38:13.506Z,101549.84
2023-05-05T14:40:39.851Z,101557.78
2023-05-05T14:43:06.568Z,101548.00
2023-05-05T14:45:33.237Z,101550.69
2023-05-05T14:47:59.653Z,101539.13
2023-05-05T14:50:26.099Z,101539.13
2023-05-05T14:52:52.486Z,101539.13
2023-05-05T14:55:19.057Z,101547.28
2023-05-05T14:57:45.445Z,101555.19
2023-05-05T15:00:12.791Z,101553.50
2023-05-05T15:02:41.130Z,101544.75
2023-05-05T15:05:08.106Z,101542.91
2023-05-05T15:07:34.738Z,101540.22
2023-05-05T15:10:02.113Z,101535.84
2023-05-05T15:12:28.472Z,101535.97
2023-05-05T15:14:55.445Z,101537.69
2023-05-05T15:17:21.923Z,101529.38
2023-05-05T15:19:48.645Z,101525.63
2023-05-05T15:22:15.103Z,101533.53
2023-05-05T15:24:45.599Z,101526.22
2023-05-05T15:27:12.063Z,101520.59
2023-05-05T15:29:38.418Z,101520.50
2023-05-05T15:32:05.278Z,101516.34
2023-05-05T15:34:31.750Z,101506.63
2023-05-05T15:36:58.176Z,101511.13
2023-05-05T15:39:24.552Z,101504.91
2023-05-05T15:41:51.012Z,101503.22
2023-05-05T15:44:17.416Z,101508.69
2023-05-05T15:46:43.790Z,101512.22
2023-05-05T15:49:10.609Z,101508.69
2023-05-05T15:51:37.095Z,101506.97
2023-05-05T15:54:03.729Z,101506.03
2023-05-05T15:56:30.180Z,101508.69
2023-05-05T15:58:56.816Z,101505.91
2023-05-05T16:01:23.275Z,101506.50
2023-05-05T16:03:49.712Z,101500.91
2023-05-05T16:06:16.149Z,101505.16
2023-05-05T16:08:42.542Z,101495.28
2023-05-05T16:11:08.889Z,101493.44
2023-05-05T16:13:35.340Z,101493.44
2023-05-05T16:16:01.726Z,101500.66
2023-05-05T16:18:28.077Z,101500.66
2023-05-05T16:20:54.524Z,101490.78
2023-05-05T16:23:20.912Z,101497.69
2023-05-05T16:25:47.298Z,101508.44
2023-05-05T16:28:13.733Z,101508.44
2023-05-05T16:30:42.624Z,101507.47
2023-05-05T16:33:09.232Z,101506.63
2023-05-05T16:35:36.186Z,101509.19
2023-05-05T16:38:02.616Z,101512.75
2023-05-05T16:40:29.318Z,101512.75
2023-05-05T16:42:55.731Z,101516.13
2023-05-05T16:45:22.530Z,101521.38
2023-05-05T16:47:49.030Z,101523.91
2023-05-05T16:50:17.233Z,101523.91
2023-05-05T16:52:43.666Z,101521.97
2023-05-05T16:55:10.253Z,101516.50
2023-05-05T16:57:36.865Z,101528.94
2023-05-05T17:00:04.833Z,101529.78
2023-05-05T17:02:31.260Z,101532.31
2023-05-05T17:04:57.723Z,101524.41
2023-05-05T17:07:24.192Z,101526.97
2023-05-05T17:09:51.536Z,101536.72
2023-05-05T17:12:17.940Z,101543.78
2023-05-05T17:14:45.314Z,101541.09
2023-05-05T17:17:11.880Z,101540.13
2023-05-05T17:19:38.296Z,101530.25
2023-05-05T17:22:04.748Z,101531.84
2023-05-05T17:24:31.161Z,101537.06
2023-05-05T17:26:57.509Z,101534.25
2023-05-05T17:29:23.902Z,101529.75
2023-05-05T17:31:50.587Z,101529.88
2023-05-05T17:34:17.144Z,101528.19
2023-05-05T17:36:43.546Z,101528.31
2023-05-05T17:39:11.289Z,101527.31
2023-05-05T17:41:37.774Z,101526.34
2023-05-05T17:44:04.276Z,101516.59
2023-05-05T17:46:30.718Z,101513.06
2023-05-05T17:48:57.170Z,101528.31
2023-05-05T17:51:23.665Z,101525.63
2023-05-05T17:53:50.049Z,101526.59
2023-05-05T17:56:16.428Z,101531.97
2023-05-05T17:58:42.774Z,101532.91
2023-05-05T18:01:13.414Z,101540.13
2023-05-05T18:03:41.076Z,101549.97
2023-05-05T18:06:07.661Z,101550.13
2023-05-05T18:08:34.039Z,101556.47
2023-05-05T18:11:00.398Z,101563.66
2023-05-05T18:13:27.144Z,101564.63
2023-05-05T18:15:53.516Z,101562.16
2023-05-05T18:18:19.988Z,101573.88
2023-05-05T18:20:52.462Z,101575.34
2023-05-05T18:23:18.817Z,101574.72
2023-05-05T18:25:45.163Z,101586.66
2023-05-05T18:28:12.155Z,101585.44
2023-05-05T18:30:38.589Z,101583.94
2023-05-05T18:33:05.179Z,101582.50
2023-05-05T18:35:31.649Z,101586.38
2023-05-05T18:37:58.031Z,101584.06
2023-05-05T18:40:24.412Z,101585.16
2023-05-05T18:42:51.038Z,101577.50
2023-05-05T18:45:17.458Z,101589.41
2023-05-05T18:47:43.846Z,101598.66
2023-05-05T18:50:10.300Z,101599.72
2023-05-05T18:52:40.449Z,101601.94
2023-05-05T18:55:07.406Z,101607.75
2023-05-05T18:57:33.922Z,101613.78
2023-05-05T19:00:03.800Z,101616.78
2023-05-05T19:02:30.200Z,101617.28
2023-05-05T19:04:56.714Z,101615.91
2023-05-05T19:07:34.405Z,101613.69
2023-05-05T19:10:04.500Z,101617.78
2023-05-05T19:12:30.906Z,101619.22
2023-05-05T19:14:57.671Z,101625.16
2023-05-05T19:17:24.041Z,101631.78
2023-05-05T19:19:50.596Z,101636.41
2023-05-05T19:22:24.705Z,101633.84
2023-05-05T19:24:51.101Z,101640.13
2023-05-05T19:27:17.562Z,101637.59
2023-05-05T19:29:52.511Z,101636.72
2023-05-05T19:32:21.239Z,101638.66
2023-05-05T19:34:47.897Z,101639.75
2023-05-05T19:37:18.614Z,101642.50
2023-05-05T19:39:45.684Z,101641.03
2023-05-05T19:42:12.189Z,101638.47
2023-05-05T19:44:38.688Z,101631.41
2023-05-05T19:47:05.129Z,101634.16
2023-05-05T19:49:31.862Z,101635.06
2023-05-05T19:51:58.862Z,101628.06
2023-05-05T19:54:25.664Z,101627.22
2023-05-05T19:56:53.759Z,101628.19
2023-05-05T19:59:22.398Z,101631.84
2023-05-05T20:01:49.121Z,101625.75
2023-05-05T20:04:15.543Z,101627.66
2023-05-05T20:06:41.930Z,101626.06
2023-05-05T20:09:08.482Z,101620.84
2023-05-05T20:11:35.588Z,101622.13
2023-05-05T20:14:02.064Z,101614.47
2023-05-05T20:16:28.467Z,101613.59
2023-05-05T20:18:54.895Z,101621.72
2023-05-05T20:21:21.375Z,101610.09
2023-05-05T20:23:47.920Z,101613.59
2023-05-05T20:26:14.322Z,101607.41
2023-05-05T20:28:44.818Z,101608.16
2023-05-05T20:31:14.832Z,101594.78
2023-05-05T20:33:41.271Z,101591.25
2023-05-05T20:36:07.834Z,101585.91
2023-05-05T20:38:34.219Z,101584.28
2023-05-05T20:41:00.660Z,101573.72
2023-05-05T20:43:27.171Z,101577.22
2023-05-05T20:45:53.521Z,101579.16
2023-05-05T20:48:19.881Z,101574.78
2023-05-05T20:50:46.407Z,101569.56
2023-05-05T20:53:16.051Z,101577.69
2023-05-05T20:55:42.441Z,101571.50
2023-05-05T20:58:09.074Z,101576.09
2023-05-05T21:00:35.690Z,101574.25
2023-05-05T21:03:02.714Z,101569.16
2023-05-05T21:05:29.743Z,101573.75
2023-05-05T21:07:57.812Z,101564.03
2023-05-05T21:10:24.925Z,101565.84
2023-05-05T21:12:51.369Z,101564.13
2023-05-05T21:15:17.787Z,101557.19
2023-05-05T21:17:44.255Z,101557.19
2023-05-05T21:20:11.380Z,101556.22
2023-05-05T21:22:37.985Z,101562.28
2023-05-05T21:25:17.370Z,101564.03
2023-05-05T21:27:46.053Z,101563.91
2023-05-05T21:30:13.136Z,101554.94
2023-05-05T21:32:40.298Z,101552.25
2023-05-05T21:35:08.048Z,101551.28
2023-05-05T21:37:38.211Z,101548.63
2023-05-05T21:40:06.232Z,101559.44
2023-05-05T21:42:32.720Z,101552.50
2023-05-05T21:44:59.162Z,101550.69
2023-05-05T21:47:27.114Z,101558.78
2023-05-05T21:49:53.499Z,101550.13
2023-05-05T21:52:19.902Z,101542.25
2023-05-05T21:54:46.291Z,101549.41
2023-05-05T21:57:12.636Z,101548.63
2023-05-05T21:59:39.068Z,101545.97
2023-05-05T22:02:06.592Z,101559.31
2023-05-05T22:04:32.970Z,101563.06
2023-05-05T22:06:59.377Z,101564.78
2023-05-05T22:09:25.717Z,101567.44
2023-05-05T22:11:52.084Z,101579.22
2023-05-05T22:14:18.497Z,101576.66
2023-05-05T22:16:44.959Z,101579.47
2023-05-05T22:19:11.580Z,101574.13
2023-05-05T22:21:37.975Z,101570.47
2023-05-05T22:24:04.754Z,101579.34
2023-05-05T22:26:31.126Z,101575.69
2023-05-05T22:28:57.761Z,101572.28
2023-05-05T22:31:24.162Z,101572.19
2023-05-05T22:33:50.565Z,101560.84
2023-05-05T22:36:16.948Z,101572.50
2023-05-05T22:38:43.326Z,101583.19
2023-05-05T22:41:09.705Z,101584.03
2023-05-05T22:43:36.172Z,101567.06
2023-05-05T22:46:02.538Z,101568.97
2023-05-05T22:48:29.193Z,101577.09
2023-05-05T22:50:56.990Z,101568.22
2023-05-05T22:53:23.506Z,101570.06
2023-05-05T22:55:51.548Z,101573.69
2023-05-05T22:58:18.597Z,101565.78
2023-05-05T23:00:45.011Z,101565.66
2023-05-05T23:03:12.137Z,101568.34
2023-05-05T23:05:38.474Z,101564.09
2023-05-05T23:08:05.036Z,101558.78
2023-05-05T23:10:31.442Z,101563.19
2023-05-05T23:12:57.899Z,101563.19
2023-05-05T23:15:24.889Z,101559.66
2023-05-05T23:17:51.319Z,101555.19
2023-05-05T23:20:17.792Z,101562.25
2023-05-05T23:22:44.155Z,101562.25
2023-05-05T23:25:10.874Z,101558.63
2023-05-05T23:27:38.624Z,101562.88
2023-05-05T23:30:06.230Z,101562.88
2023-05-05T23:32:32.976Z,101558.28
2023-05-05T23:34:59.370Z,101564.47
2023-05-05T23:37:25.781Z,101558.28
2023-05-05T23:39:52.137Z,101567.25
2023-05-05T23:42:18.498Z,101569.09
2023-05-05T23:44:44.899Z,101569.09
2023-05-05T23:47:11.255Z,101570.06
2023-05-05T23:49:37.988Z,101564.59
2023-05-05T23:52:04.599Z,101577.09
2023-05-05T23:54:31.123Z,101569.19
2023-05-05T23:56:58.590Z,101568.22
2023-05-05T23:59:24.951Z,101571.63
